Time;durP1;ratioP1;P1;durP2;ratioP2;P2;SDS_P1;SDS_P2;PMS_P1;PMS_P2;Temp;Humidity;BMP_temperature;BMP_pressure;BME280_temperature;BME280_humidity;BME280_pressure;Samples;Min_cycle;Max_cycle;Signal;HPM_P1;HPM_P2
2023/03/04 00:01:08;;;;;;;13.82;2.67;;;4.80;91.40;;;;;;5022754;28;20044;-79
2023/03/04 00:03:33;;;;;;;13.98;2.38;;;4.80;91.30;;;;;;5041784;28;20055;-79
2023/03/04 00:05:59;;;;;;;22.75;2.50;;;4.80;91.30;;;;;;5029474;28;20115;-79
2023/03/04 00:08:24;;;;;;;12.82;2.22;;;4.80;91.20;;;;;;5033260;28;20120;-82
2023/03/04 00:10:50;;;;;;;15.65;2.53;;;4.90;91.30;;;;;;5023367;28;20575;-80
2023/03/04 00:13:15;;;;;;;15.82;2.40;;;4.90;91.10;;;;;;5036827;28;20470;-80
2023/03/04 00:15:41;;;;;;;18.25;2.72;;;4.90;90.80;;;;;;5020567;28;20092;-80
2023/03/04 00:18:06;;;;;;;12.60;2.85;;;5.00;91.00;;;;;;5028254;28;20120;-80
2023/03/04 00:20:32;;;;;;;13.98;2.20;;;5.00;91.30;;;;;;5018809;28;20040;-80
2023/03/04 00:22:57;;;;;;;17.25;2.00;;;4.90;91.30;;;;;;5030105;28;20043;-80
2023/03/04 00:25:23;;;;;;;14.10;2.30;;;5.00;91.10;;;;;;5030792;28;20125;-81
2023/03/04 00:27:48;;;;;;;13.63;2.28;;;5.00;91.00;;;;;;5025851;28;20045;-80
2023/03/04 00:30:14;;;;;;;17.15;2.60;;;5.00;91.20;;;;;;5022468;28;20050;-79
2023/03/04 00:32:39;;;;;;;15.50;2.47;;;5.00;91.40;;;;;;5020521;28;20120;-79
2023/03/04 00:35:06;;;;;;;13.05;1.92;;;5.00;91.50;;;;;;5022943;28;20033;-79
2023/03/04 00:37:31;;;;;;;15.00;1.83;;;5.00;91.40;;;;;;5010077;28;20120;-79
2023/03/04 00:39:57;;;;;;;15.65;1.90;;;5.00;91.40;;;;;;5038365;28;20121;-78
2023/03/04 00:42:22;;;;;;;17.20;2.05;;;5.00;91.20;;;;;;5030114;28;20060;-80
2023/03/04 00:44:48;;;;;;;10.70;2.20;;;5.10;90.80;;;;;;5024181;28;20512;-81
2023/03/04 00:47:14;;;;;;;13.30;2.15;;;5.00;90.90;;;;;;5027607;28;20385;-80
2023/03/04 00:49:39;;;;;;;9.82;1.80;;;5.00;91.00;;;;;;5033538;28;20096;-79
2023/03/04 00:52:05;;;;;;;11.27;2.08;;;5.10;91.10;;;;;;5038086;28;20064;-79
2023/03/04 00:54:30;;;;;;;12.38;2.05;;;5.00;91.30;;;;;;5036446;28;20033;-79
2023/03/04 00:56:56;;;;;;;10.00;1.60;;;5.10;91.00;;;;;;5030078;28;20065;-79
2023/03/04 00:59:21;;;;;;;16.33;2.13;;;5.10;91.00;;;;;;5026399;28;20432;-80
2023/03/04 01:01:47;;;;;;;7.60;1.38;;;5.10;91.30;;;;;;5008471;28;20030;-80
2023/03/04 01:04:12;;;;;;;11.32;1.98;;;5.00;91.70;;;;;;5026517;28;20530;-80
2023/03/04 01:06:38;;;;;;;15.82;2.15;;;5.00;91.70;;;;;;5030531;28;20382;-79
2023/03/04 01:09:03;;;;;;;8.73;1.83;;;5.00;91.60;;;;;;5033891;28;20084;-79
2023/03/04 01:11:28;;;;;;;13.27;1.58;;;5.00;91.20;;;;;;5025627;28;20493;-79
2023/03/04 01:13:54;;;;;;;8.55;1.90;;;5.00;91.00;;;;;;5010744;28;20057;-79
2023/03/04 01:16:19;;;;;;;12.07;2.17;;;5.00;91.00;;;;;;5025918;28;20037;-79
2023/03/04 01:18:46;;;;;;;8.30;1.88;;;5.00;91.30;;;;;;5022752;28;20045;-79
2023/03/04 01:21:12;;;;;;;11.68;1.35;;;5.00;91.00;;;;;;5030268;28;20029;-80
2023/03/04 01:23:37;;;;;;;12.98;2.15;;;5.00;91.20;;;;;;5028921;28;20099;-79
2023/03/04 01:26:03;;;;;;;10.50;1.70;;;5.00;91.30;;;;;;5026221;28;20073;-79
2023/03/04 01:28:28;;;;;;;11.57;1.95;;;5.00;91.40;;;;;;5006061;28;20421;-79
2023/03/04 01:30:54;;;;;;;13.15;2.00;;;5.00;91.40;;;;;;5020562;28;20034;-79
2023/03/04 01:33:19;;;;;;;8.05;1.55;;;5.00;91.70;;;;;;5020070;28;20075;-81
2023/03/04 01:35:45;;;;;;;13.00;1.92;;;5.00;92.00;;;;;;5025412;28;20377;-79
2023/03/04 01:38:12;;;;;;;10.65;2.15;;;5.00;92.00;;;;;;5009569;28;20049;-79
2023/03/04 01:40:38;;;;;;;9.40;1.90;;;5.00;92.10;;;;;;5028614;28;20044;-79
2023/03/04 01:43:04;;;;;;;8.43;1.30;;;4.90;92.30;;;;;;5022317;28;20543;-79
2023/03/04 01:45:31;;;;;;;9.10;1.60;;;4.80;92.50;;;;;;5035010;28;20037;-79
2023/03/04 01:47:56;;;;;;;11.73;1.70;;;4.90;92.50;;;;;;5043559;28;20032;-79
2023/03/04 01:50:34;;;;;;;12.52;1.75;;;4.80;92.80;;;;;;5018994;28;20025;-79
2023/03/04 01:53:01;;;;;;;10.50;1.65;;;4.80;93.00;;;;;;5013833;28;20430;-79
2023/03/04 01:55:28;;;;;;;7.72;1.50;;;4.80;93.00;;;;;;5011894;28;20392;-79
2023/03/04 01:57:54;;;;;;;7.32;1.67;;;4.80;93.00;;;;;;5039240;28;20048;-80
2023/03/04 02:00:32;;;;;;;10.23;2.10;;;4.80;93.00;;;;;;5027611;28;20048;-79
2023/03/04 02:03:02;;;;;;;7.43;1.08;;;4.70;93.20;;;;;;5024750;28;20032;-79
2023/03/04 02:05:29;;;;;;;5.37;1.17;;;4.70;93.20;;;;;;5037102;28;20391;-79
2023/03/04 02:07:56;;;;;;;7.68;1.15;;;4.70;92.80;;;;;;5036383;28;20045;-79
2023/03/04 02:10:21;;;;;;;8.93;2.05;;;4.80;92.80;;;;;;5043627;28;20060;-79
2023/03/04 02:12:47;;;;;;;12.25;2.08;;;4.70;92.80;;;;;;5020082;28;20441;-79
2023/03/04 02:15:13;;;;;;;11.27;1.67;;;4.80;92.50;;;;;;5038777;28;20374;-79
2023/03/04 02:17:38;;;;;;;3.40;0.75;;;4.80;92.20;;;;;;5034977;28;20047;-79
2023/03/04 02:20:04;;;;;;;7.57;1.17;;;4.90;91.90;;;;;;5044769;28;20087;-79
2023/03/04 02:22:31;;;;;;;7.72;1.30;;;4.90;91.90;;;;;;5037866;28;20028;-79
2023/03/04 02:25:23;;;;;;;3.45;1.13;;;4.90;92.00;;;;;;5037006;28;20025;-79
2023/03/04 02:27:48;;;;;;;7.35;1.13;;;4.80;92.10;;;;;;5040308;28;20044;-79
2023/03/04 02:30:15;;;;;;;8.70;1.50;;;4.80;92.20;;;;;;5009419;28;20060;-80
2023/03/04 02:32:40;;;;;;;5.55;1.40;;;4.80;92.30;;;;;;5030650;28;20088;-79
2023/03/04 02:35:15;;;;;;;9.18;1.58;;;4.80;92.40;;;;;;5027848;28;20112;-79
2023/03/04 02:37:41;;;;;;;12.48;1.58;;;4.80;92.60;;;;;;5034498;28;20044;-80
2023/03/04 02:40:19;;;;;;;16.20;1.58;;;4.80;92.70;;;;;;5039022;28;20052;-79
2023/03/04 02:42:45;;;;;;;10.02;1.73;;;4.80;92.80;;;;;;5038302;28;20124;-79
2023/03/04 02:45:32;;;;;;;7.70;1.23;;;4.80;92.80;;;;;;5041037;28;20112;-78
2023/03/04 02:47:58;;;;;;;9.65;1.70;;;4.80;92.80;;;;;;5023111;28;20111;-79
2023/03/04 02:50:24;;;;;;;7.50;1.20;;;4.80;92.70;;;;;;5030599;28;20552;-79
2023/03/04 02:52:50;;;;;;;9.98;1.50;;;4.80;92.60;;;;;;5032314;28;20030;-79
2023/03/04 02:55:15;;;;;;;11.30;1.98;;;4.80;92.50;;;;;;5039270;28;20179;-79
2023/03/04 02:57:41;;;;;;;9.82;1.95;;;4.80;92.60;;;;;;5030903;28;20045;-79
2023/03/04 03:00:07;;;;;;;7.55;1.40;;;4.80;92.50;;;;;;5024061;28;20355;-81
2023/03/04 03:02:33;;;;;;;9.05;2.05;;;4.80;92.50;;;;;;5040784;28;20032;-79
2023/03/04 03:04:58;;;;;;;4.57;1.20;;;4.80;92.50;;;;;;5012593;28;20038;-80
2023/03/04 03:07:24;;;;;;;10.38;1.85;;;4.80;92.40;;;;;;5033542;28;20056;-80
2023/03/04 03:09:50;;;;;;;10.75;1.63;;;4.80;92.40;;;;;;5041250;28;20377;-79
2023/03/04 03:12:15;;;;;;;7.30;1.48;;;4.80;92.30;;;;;;5039909;28;20029;-79
2023/03/04 03:14:41;;;;;;;11.35;1.42;;;4.90;92.20;;;;;;5028025;28;20034;-79
2023/03/04 03:17:06;;;;;;;8.82;1.33;;;4.90;92.20;;;;;;5035260;28;20033;-80
2023/03/04 03:19:32;;;;;;;11.13;1.88;;;4.90;92.20;;;;;;5032324;28;20471;-80
2023/03/04 03:21:57;;;;;;;9.30;1.50;;;4.90;92.30;;;;;;5032750;28;20113;-79
2023/03/04 03:24:22;;;;;;;15.02;1.92;;;4.90;92.20;;;;;;5022946;28;20030;-79
2023/03/04 03:26:48;;;;;;;8.65;1.42;;;4.90;92.30;;;;;;5038811;28;20087;-79
2023/03/04 03:29:13;;;;;;;11.73;1.80;;;4.90;92.40;;;;;;5032241;28;20053;-79
2023/03/04 03:31:39;;;;;;;12.10;1.95;;;5.00;92.40;;;;;;5044049;28;20549;-79
2023/03/04 03:34:04;;;;;;;11.82;1.55;;;4.90;92.50;;;;;;5036106;28;20043;-79
2023/03/04 03:36:30;;;;;;;12.98;1.60;;;4.90;92.60;;;;;;5047576;28;20386;-80
2023/03/04 03:38:55;;;;;;;7.78;2.03;;;4.90;92.70;;;;;;5042521;28;20116;-79
2023/03/04 03:41:21;;;;;;;12.88;1.50;;;4.90;92.90;;;;;;5034712;28;20116;-78
2023/03/04 03:43:46;;;;;;;12.18;2.00;;;4.90;93.30;;;;;;5015064;28;20470;-81
2023/03/04 03:46:12;;;;;;;11.00;1.85;;;4.90;93.40;;;;;;5037535;28;20037;-79
2023/03/04 03:48:37;;;;;;;9.88;1.38;;;4.90;93.60;;;;;;5042198;28;20591;-79
2023/03/04 03:51:03;;;;;;;11.07;1.50;;;4.90;94.10;;;;;;5041192;28;20433;-79
2023/03/04 03:53:28;;;;;;;9.68;1.85;;;4.80;94.30;;;;;;5041059;28;20032;-79
2023/03/04 03:55:54;;;;;;;11.90;1.70;;;4.80;94.70;;;;;;5033842;28;20091;-79
2023/03/04 03:58:19;;;;;;;11.50;1.55;;;4.80;94.70;;;;;;5046517;28;20048;-79
2023/03/04 04:00:45;;;;;;;9.98;2.03;;;4.80;95.00;;;;;;5032528;28;20025;-79
2023/03/04 04:03:14;;;;;;;5.32;1.23;;;4.70;95.40;;;;;;5037888;28;20068;-79
2023/03/04 04:05:39;;;;;;;10.43;1.35;;;4.70;95.70;;;;;;5038638;28;20052;-79
2023/03/04 04:08:04;;;;;;;10.38;1.60;;;4.70;95.80;;;;;;5036739;28;20038;-78
2023/03/04 04:10:30;;;;;;;6.88;1.27;;;4.60;96.20;;;;;;5036317;28;20036;-79
2023/03/04 04:12:55;;;;;;;8.32;1.17;;;4.70;96.30;;;;;;5043607;28;20060;-79
2023/03/04 04:15:21;;;;;;;9.18;1.90;;;4.60;96.30;;;;;;5038683;28;20035;-80
2023/03/04 04:17:46;;;;;;;8.10;1.67;;;4.60;96.40;;;;;;5028215;28;20069;-78
2023/03/04 04:20:12;;;;;;;17.65;2.25;;;4.60;96.50;;;;;;5039029;28;20038;-79
2023/03/04 04:22:37;;;;;;;8.45;1.25;;;4.60;96.60;;;;;;5030707;28;21681;-78
2023/03/04 04:25:03;;;;;;;6.95;1.40;;;4.60;96.80;;;;;;5045832;28;20040;-78
2023/03/04 04:27:29;;;;;;;10.20;1.58;;;4.60;96.80;;;;;;5033810;28;20765;-79
2023/03/04 04:29:54;;;;;;;7.55;1.73;;;4.60;97.00;;;;;;5042397;28;20112;-79
2023/03/04 04:32:20;;;;;;;14.35;1.67;;;4.60;97.20;;;;;;5033403;28;20040;-78
2023/03/04 04:34:45;;;;;;;9.75;1.20;;;4.60;97.30;;;;;;5039000;28;20040;-78
2023/03/04 04:37:11;;;;;;;8.40;2.22;;;4.50;97.60;;;;;;5041673;28;20339;-79
2023/03/04 04:39:37;;;;;;;8.23;1.70;;;4.50;97.80;;;;;;5038264;28;20038;-78
2023/03/04 04:42:02;;;;;;;8.88;1.50;;;4.50;97.80;;;;;;5038673;28;20513;-79
2023/03/04 04:44:28;;;;;;;9.65;1.48;;;4.50;97.90;;;;;;5045344;28;20040;-78
2023/03/04 04:46:53;;;;;;;13.25;1.92;;;4.50;97.90;;;;;;5038462;28;20045;-78
2023/03/04 04:49:19;;;;;;;8.45;1.52;;;4.60;98.00;;;;;;5035435;28;20033;-80
2023/03/04 04:51:44;;;;;;;11.90;1.67;;;4.50;98.10;;;;;;5038255;28;20158;-78
2023/03/04 04:54:11;;;;;;;7.60;1.70;;;4.50;98.10;;;;;;5048105;28;20040;-79
2023/03/04 04:56:37;;;;;;;8.18;1.52;;;4.50;98.20;;;;;;5041591;28;20021;-78
2023/03/04 04:59:04;;;;;;;12.75;1.98;;;4.50;98.20;;;;;;5037872;28;20504;-78
2023/03/04 05:01:30;;;;;;;12.23;1.60;;;4.50;98.30;;;;;;5034246;28;20037;-78
2023/03/04 05:03:55;;;;;;;7.50;1.75;;;4.50;98.50;;;;;;5034453;28;20080;-78
2023/03/04 05:06:22;;;;;;;6.95;1.30;;;4.50;98.60;;;;;;5019880;28;20386;-78
2023/03/04 05:08:48;;;;;;;7.35;1.40;;;4.50;98.70;;;;;;5043411;28;20072;-78
2023/03/04 05:11:15;;;;;;;8.48;1.40;;;4.50;98.70;;;;;;5019059;28;20065;-78
2023/03/04 05:13:40;;;;;;;6.32;1.42;;;4.50;98.70;;;;;;5043745;28;20032;-80
2023/03/04 05:16:06;;;;;;;8.60;1.60;;;4.50;98.70;;;;;;5031826;28;20034;-78
2023/03/04 05:18:32;;;;;;;6.50;1.35;;;4.60;98.60;;;;;;5045378;28;20488;-79
2023/03/04 05:21:00;;;;;;;10.77;1.65;;;4.60;98.60;;;;;;5045981;28;20033;-78
2023/03/04 05:23:28;;;;;;;9.43;1.65;;;4.50;98.50;;;;;;5048563;28;20041;-80
2023/03/04 05:25:54;;;;;;;7.82;1.50;;;4.60;98.20;;;;;;5031592;28;20488;-78
2023/03/04 05:28:19;;;;;;;11.18;1.70;;;4.60;97.90;;;;;;5017045;28;20079;-74
2023/03/04 05:30:46;;;;;;;10.40;1.80;;;4.60;98.00;;;;;;5034452;28;20033;-73
2023/03/04 05:33:13;;;;;;;8.98;1.60;;;4.60;97.90;;;;;;5036493;28;20127;-74
2023/03/04 05:35:40;;;;;;;13.57;1.70;;;4.60;97.80;;;;;;5033124;28;20071;-73
2023/03/04 05:38:09;;;;;;;7.68;1.58;;;4.60;97.70;;;;;;5051749;28;20040;-73
2023/03/04 05:40:34;;;;;;;11.93;2.20;;;4.60;97.60;;;;;;5034348;28;20029;-74
2023/03/04 05:43:01;;;;;;;13.43;1.83;;;4.60;97.50;;;;;;5035626;28;20030;-74
2023/03/04 05:45:26;;;;;;;7.70;1.40;;;4.60;97.40;;;;;;5037300;28;20025;-73
2023/03/04 05:47:52;;;;;;;12.40;1.75;;;4.60;97.20;;;;;;5030660;28;20083;-73
2023/03/04 05:50:19;;;;;;;7.93;1.60;;;4.60;97.10;;;;;;5035188;28;20033;-74
2023/03/04 05:52:45;;;;;;;13.57;1.65;;;4.60;97.30;;;;;;5014213;28;20057;-73
2023/03/04 05:55:11;;;;;;;12.60;1.52;;;4.60;97.50;;;;;;5030779;28;20080;-73
2023/03/04 05:57:37;;;;;;;9.07;1.73;;;4.60;97.80;;;;;;5032164;28;20041;-74
2023/03/04 06:00:09;;;;;;;11.93;1.77;;;4.60;97.90;;;;;;5009289;28;20049;-76
2023/03/04 06:02:35;;;;;;;9.73;1.48;;;4.60;98.10;;;;;;5028975;28;20065;-73
2023/03/04 06:05:01;;;;;;;10.90;2.28;;;4.60;98.20;;;;;;5025965;28;20033;-74
2023/03/04 06:07:27;;;;;;;13.43;2.10;;;4.50;98.20;;;;;;5039350;28;20400;-73
2023/03/04 06:09:52;;;;;;;9.73;1.73;;;4.60;98.10;;;;;;5034785;28;20033;-74
2023/03/04 06:12:18;;;;;;;10.52;1.95;;;4.50;97.90;;;;;;5047167;28;20056;-74
2023/03/04 06:14:43;;;;;;;11.13;2.15;;;4.60;97.60;;;;;;5009605;28;20476;-73
2023/03/04 06:17:09;;;;;;;5.93;1.02;;;4.50;97.50;;;;;;5029781;28;20026;-73
2023/03/04 06:19:36;;;;;;;12.45;2.00;;;4.60;97.00;;;;;;5031352;28;20048;-73
2023/03/04 06:22:03;;;;;;;12.23;2.22;;;4.60;96.70;;;;;;5032912;28;20061;-74
2023/03/04 06:24:28;;;;;;;13.85;2.60;;;4.60;96.40;;;;;;5030918;28;20129;-73
2023/03/04 06:26:54;;;;;;;14.65;2.25;;;4.60;95.50;;;;;;5018064;28;20176;-73
2023/03/04 06:29:19;;;;;;;15.43;2.08;;;4.60;95.10;;;;;;5038563;28;20053;-73
2023/03/04 06:31:45;;;;;;;11.57;2.25;;;4.60;95.10;;;;;;5036855;28;20446;-74
2023/03/04 06:34:10;;;;;;;14.00;1.80;;;4.60;95.00;;;;;;5035865;28;20482;-74
2023/03/04 06:36:36;;;;;;;12.98;1.80;;;4.60;94.80;;;;;;5036734;28;20475;-74
2023/03/04 06:39:04;;;;;;;11.95;2.05;;;4.60;94.10;;;;;;5028391;28;20401;-74
2023/03/04 06:41:29;;;;;;;16.17;2.75;;;4.60;94.30;;;;;;5032494;28;20037;-74
2023/03/04 06:43:55;;;;;;;17.05;2.33;;;4.60;94.30;;;;;;5026652;28;20036;-74
2023/03/04 06:46:20;;;;;;;18.48;2.58;;;4.60;94.60;;;;;;5027840;28;20039;-74
2023/03/04 06:48:46;;;;;;;16.38;2.85;;;4.60;94.70;;;;;;5042217;28;20071;-74
2023/03/04 06:51:11;;;;;;;10.35;1.92;;;4.60;94.70;;;;;;5032207;28;20037;-74
2023/03/04 06:53:38;;;;;;;16.30;2.42;;;4.60;94.60;;;;;;5034851;28;20045;-74
2023/03/04 06:56:05;;;;;;;15.57;2.58;;;4.60;95.00;;;;;;5030677;28;20040;-74
2023/03/04 06:58:31;;;;;;;18.27;2.20;;;4.60;95.50;;;;;;5039198;28;20083;-74
2023/03/04 07:00:56;;;;;;;12.65;2.22;;;4.60;95.50;;;;;;5032347;28;20397;-74
2023/03/04 07:03:22;;;;;;;13.32;2.28;;;4.60;94.70;;;;;;5020307;28;20089;-74
2023/03/04 07:05:48;;;;;;;17.85;2.67;;;4.70;94.20;;;;;;5037024;28;20458;-74
2023/03/04 07:08:13;;;;;;;22.63;2.97;;;4.70;93.90;;;;;;5039398;28;20033;-74
2023/03/04 07:10:39;;;;;;;18.30;2.90;;;4.70;93.90;;;;;;5034956;28;20447;-74
2023/03/04 07:13:05;;;;;;;20.75;3.53;;;4.60;93.70;;;;;;5032413;28;20095;-74
2023/03/04 07:15:31;;;;;;;16.40;2.70;;;4.60;93.70;;;;;;5031490;28;20033;-74
2023/03/04 07:17:56;;;;;;;16.13;3.33;;;4.60;92.50;;;;;;5034577;28;20041;-74
2023/03/04 07:20:22;;;;;;;22.15;2.92;;;4.60;91.80;;;;;;5034303;28;20462;-74
2023/03/04 07:22:47;;;;;;;17.88;3.25;;;4.60;90.20;;;;;;5035954;28;20045;-75
2023/03/04 07:25:12;;;;;;;17.55;2.63;;;4.70;89.50;;;;;;5037563;28;20033;-74
2023/03/04 07:27:39;;;;;;;15.77;3.25;;;4.70;89.10;;;;;;5018060;28;20028;-74
2023/03/04 07:30:06;;;;;;;19.00;2.85;;;4.70;89.00;;;;;;5030677;28;20084;-74
2023/03/04 07:32:33;;;;;;;16.80;2.60;;;4.70;87.90;;;;;;5031833;28;20082;-74
2023/03/04 07:34:58;;;;;;;14.95;2.13;;;4.60;86.70;;;;;;5034274;28;20030;-74
2023/03/04 07:37:24;;;;;;;9.88;1.75;;;4.60;86.90;;;;;;5033634;28;20036;-74
2023/03/04 07:39:49;;;;;;;12.00;2.08;;;4.60;86.30;;;;;;5033042;28;20040;-74
2023/03/04 07:42:15;;;;;;;8.35;1.27;;;4.70;85.90;;;;;;5041557;28;20040;-74
2023/03/04 07:44:40;;;;;;;7.32;1.63;;;4.70;85.60;;;;;;5048982;28;20033;-74
2023/03/04 07:47:06;;;;;;;11.82;1.40;;;4.70;85.20;;;;;;5028769;28;20117;-74
2023/03/04 07:49:31;;;;;;;9.00;1.30;;;4.70;86.00;;;;;;5017971;28;20033;-74
2023/03/04 07:51:57;;;;;;;12.13;1.73;;;4.70;85.60;;;;;;5041028;28;20044;-74
2023/03/04 07:54:22;;;;;;;9.57;1.55;;;4.70;86.70;;;;;;5032787;28;20600;-74
2023/03/04 07:56:48;;;;;;;6.55;1.73;;;4.70;86.40;;;;;;5027944;28;20048;-74
2023/03/04 07:59:13;;;;;;;13.90;1.77;;;4.70;86.20;;;;;;5031373;28;20044;-75
2023/03/04 08:01:39;;;;;;;11.05;1.73;;;4.70;86.50;;;;;;5034256;28;20131;-74
2023/03/04 08:04:05;;;;;;;9.30;1.45;;;4.80;86.10;;;;;;5013568;28;20032;-74
2023/03/04 08:06:32;;;;;;;9.35;1.60;;;4.80;86.00;;;;;;5024940;28;20135;-75
2023/03/04 08:09:05;;;;;;;12.43;1.88;;;4.80;86.70;;;;;;5033301;28;20068;-75
2023/03/04 08:11:31;;;;;;;15.30;2.03;;;4.80;87.30;;;;;;5037840;28;20033;-75
2023/03/04 08:13:57;;;;;;;11.25;1.80;;;4.70;87.60;;;;;;5035777;28;20083;-74
2023/03/04 08:16:24;;;;;;;9.30;1.80;;;4.70;88.10;;;;;;5036063;28;20115;-74
2023/03/04 08:18:52;;;;;;;10.02;1.55;;;4.70;88.30;;;;;;5048094;28;20036;-74
2023/03/04 08:21:20;;;;;;;13.18;1.90;;;4.70;88.50;;;;;;5039360;28;20025;-74
2023/03/04 08:23:46;;;;;;;10.80;1.38;;;4.70;88.70;;;;;;5035669;28;20048;-74
2023/03/04 08:26:17;;;;;;;11.48;1.70;;;4.70;89.20;;;;;;5020474;28;20033;-74
2023/03/04 08:28:44;;;;;;;12.93;2.40;;;4.60;89.60;;;;;;5028212;28;20080;-75
2023/03/04 08:31:11;;;;;;;13.38;1.77;;;4.60;91.00;;;;;;5010795;28;20033;-74
2023/03/04 08:33:36;;;;;;;15.45;2.08;;;4.50;91.10;;;;;;5014883;28;20380;-74
2023/03/04 08:36:02;;;;;;;12.35;1.60;;;4.60;91.50;;;;;;5010113;28;20030;-74
2023/03/04 08:38:28;;;;;;;15.55;1.98;;;4.60;90.60;;;;;;5007661;28;20042;-74
2023/03/04 08:40:55;;;;;;;17.73;2.53;;;4.60;90.00;;;;;;5013397;28;20037;-74
2023/03/04 08:43:22;;;;;;;10.93;2.15;;;4.60;89.60;;;;;;4998101;28;20034;-74
2023/03/04 08:45:48;;;;;;;18.95;2.70;;;4.60;88.80;;;;;;5012502;28;20097;-74
2023/03/04 08:48:15;;;;;;;21.63;2.65;;;4.60;89.20;;;;;;5023171;28;20181;-75
2023/03/04 08:50:42;;;;;;;14.25;2.58;;;4.60;87.90;;;;;;5000156;28;20378;-74
2023/03/04 08:53:07;;;;;;;11.95;2.10;;;4.70;88.20;;;;;;5017794;28;20402;-75
2023/03/04 08:55:33;;;;;;;12.35;2.28;;;4.70;86.30;;;;;;4996842;28;20032;-75
2023/03/04 08:57:58;;;;;;;16.50;3.25;;;4.70;85.10;;;;;;5013250;28;20487;-74
2023/03/04 09:00:23;;;;;;;21.20;3.05;;;4.70;86.00;;;;;;5008882;28;20073;-74
2023/03/04 09:02:49;;;;;;;15.05;2.10;;;4.70;85.10;;;;;;5011660;28;20032;-74
2023/03/04 09:05:15;;;;;;;14.40;2.55;;;4.70;85.10;;;;;;5010302;28;20036;-74
2023/03/04 09:07:40;;;;;;;11.43;1.95;;;4.70;83.90;;;;;;5011320;28;20113;-74
2023/03/04 09:10:06;;;;;;;15.20;2.97;;;4.70;83.70;;;;;;5009813;28;20033;-75
2023/03/04 09:12:32;;;;;;;8.07;1.95;;;4.70;82.10;;;;;;5005304;28;20034;-74
2023/03/04 09:14:58;;;;;;;16.10;2.50;;;4.70;82.40;;;;;;5010202;28;20045;-74
2023/03/04 09:17:23;;;;;;;17.58;3.00;;;4.80;82.50;;;;;;5009014;28;20030;-74
2023/03/04 09:19:49;;;;;;;13.90;2.17;;;4.80;82.90;;;;;;5010638;28;20036;-74
2023/03/04 09:22:14;;;;;;;13.23;2.40;;;4.80;83.00;;;;;;5011035;28;20121;-74
2023/03/04 09:24:40;;;;;;;12.85;2.40;;;4.80;82.90;;;;;;5011965;28;20226;-74
2023/03/04 09:27:05;;;;;;;14.13;2.58;;;4.80;82.00;;;;;;5008805;28;20462;-74
2023/03/04 09:29:30;;;;;;;12.25;2.58;;;4.90;82.30;;;;;;5006324;28;20050;-74
2023/03/04 09:31:56;;;;;;;13.25;2.03;;;4.90;82.00;;;;;;5015009;28;20038;-74
2023/03/04 09:34:21;;;;;;;11.18;2.22;;;5.00;81.30;;;;;;5009384;28;20463;-74
2023/03/04 09:36:47;;;;;;;16.48;2.63;;;5.00;81.40;;;;;;5006803;28;20502;-74
2023/03/04 09:39:12;;;;;;;14.25;2.10;;;4.90;81.30;;;;;;5009889;28;20046;-74
2023/03/04 09:41:42;;;;;;;20.90;2.53;;;4.90;80.50;;;;;;5010107;28;20395;-74
2023/03/04 09:44:31;;;;;;;17.93;3.67;;;5.00;80.70;;;;;;5008854;28;20042;-74
2023/03/04 09:47:01;;;;;;;14.23;2.25;;;4.90;80.40;;;;;;5008863;28;20454;-74
2023/03/04 09:49:27;;;;;;;14.93;2.85;;;4.90;80.20;;;;;;5010649;28;20038;-74
2023/03/04 09:52:36;;;;;;;15.13;2.40;;;4.90;79.70;;;;;;5010024;28;20068;-74
2023/03/04 09:55:12;;;;;;;18.88;2.97;;;5.00;80.20;;;;;;5009725;28;20041;-75
2023/03/04 09:58:05;;;;;;;16.35;2.45;;;5.00;80.30;;;;;;5015234;28;20450;-74
2023/03/04 10:00:40;;;;;;;13.98;2.50;;;5.00;81.30;;;;;;5007166;28;20045;-74
2023/03/04 10:03:17;;;;;;;15.73;3.20;;;5.00;80.30;;;;;;4999332;28;20022;-74
2023/03/04 10:06:06;;;;;;;15.68;2.85;;;5.10;80.90;;;;;;5016370;28;20025;-74
2023/03/04 10:08:44;;;;;;;17.05;2.78;;;5.10;80.80;;;;;;5014449;28;20059;-74
2023/03/04 10:11:27;;;;;;;21.33;2.85;;;5.10;81.10;;;;;;5014421;28;20022;-74
2023/03/04 10:14:21;;;;;;;12.40;2.60;;;5.00;82.00;;;;;;5014459;28;20497;-74
2023/03/04 10:17:12;;;;;;;18.13;3.58;;;5.00;83.30;;;;;;5014208;28;20026;-74
2023/03/04 10:20:11;;;;;;;19.25;3.05;;;5.00;83.90;;;;;;5015315;28;20034;-74
2023/03/04 10:22:48;;;;;;;18.83;3.45;;;5.00;82.30;;;;;;5021257;28;20024;-74
2023/03/04 10:25:27;;;;;;;14.52;2.75;;;5.10;82.30;;;;;;5015819;28;20116;-74
2023/03/04 10:28:15;;;;;;;12.82;2.95;;;5.20;80.70;;;;;;5018782;28;20556;-74
2023/03/04 10:31:19;;;;;;;17.65;3.30;;;5.20;80.30;;;;;;5028151;28;20025;-74
2023/03/04 10:33:44;;;;;;;14.88;3.15;;;5.30;80.70;;;;;;5034882;28;20052;-74
2023/03/04 10:36:28;;;;;;;19.40;3.35;;;5.20;81.60;;;;;;5039410;28;20025;-74
2023/03/04 10:38:57;;;;;;;23.52;3.20;;;5.20;81.90;;;;;;5031572;28;20052;-74
2023/03/04 10:41:25;;;;;;;20.77;3.33;;;5.30;81.50;;;;;;5040402;28;20044;-74
2023/03/04 10:44:10;;;;;;;16.70;2.45;;;5.40;80.80;;;;;;5034981;28;20014;-74
2023/03/04 10:46:40;;;;;;;13.55;2.88;;;5.50;80.40;;;;;;5027140;28;20060;-74
2023/03/04 10:49:08;;;;;;;18.05;3.83;;;5.50;79.30;;;;;;5042894;28;20472;-74
2023/03/04 10:51:53;;;;;;;18.88;2.70;;;5.50;78.80;;;;;;5019800;28;20033;-74
2023/03/04 10:54:30;;;;;;;15.43;3.03;;;5.50;77.90;;;;;;5042310;28;20493;-74
2023/03/04 10:57:05;;;;;;;19.55;3.75;;;5.60;78.60;;;;;;5016888;28;20037;-74
2023/03/04 10:59:54;;;;;;;14.13;3.28;;;5.60;79.50;;;;;;5027277;28;20378;-74
2023/03/04 11:02:28;;;;;;;22.25;3.60;;;5.80;80.20;;;;;;5027831;28;20021;-74
2023/03/04 11:05:22;;;;;;;16.42;2.70;;;5.80;78.80;;;;;;5029655;28;20448;-74
2023/03/04 11:07:57;;;;;;;14.55;2.38;;;5.70;78.80;;;;;;5035395;28;20029;-74
2023/03/04 11:10:30;;;;;;;13.40;2.78;;;5.70;78.10;;;;;;5033263;28;20040;-74
2023/03/04 11:13:02;;;;;;;16.77;3.28;;;5.60;78.00;;;;;;5032712;28;20034;-74
2023/03/04 11:15:30;;;;;;;19.33;3.00;;;5.70;76.80;;;;;;5035005;28;20018;-74
2023/03/04 11:18:03;;;;;;;16.77;3.30;;;5.90;77.10;;;;;;5035176;28;20108;-74
2023/03/04 11:20:33;;;;;;;16.55;3.00;;;5.90;76.30;;;;;;5029751;28;20792;-74
2023/03/04 11:23:10;;;;;;;16.90;3.10;;;5.90;76.00;;;;;;5024590;28;20413;-74
2023/03/04 11:25:59;;;;;;;13.57;2.17;;;5.80;75.30;;;;;;5038724;28;20025;-74
2023/03/04 11:28:33;;;;;;;20.95;2.80;;;6.00;76.80;;;;;;5026670;28;20084;-74
2023/03/04 11:31:03;;;;;;;10.77;2.80;;;5.70;75.80;;;;;;5016792;28;20054;-74
2023/03/04 11:34:00;;;;;;;17.03;2.70;;;5.50;76.30;;;;;;5026867;28;20014;-74
2023/03/04 11:36:39;;;;;;;16.02;2.55;;;5.60;75.00;;;;;;5018197;28;20292;-74
2023/03/04 11:39:18;;;;;;;18.08;2.83;;;5.70;74.50;;;;;;5008740;28;20477;-74
2023/03/04 11:41:55;;;;;;;15.98;2.83;;;5.80;74.00;;;;;;4999206;28;20037;-74
2023/03/04 11:44:21;;;;;;;16.73;3.78;;;5.80;73.60;;;;;;4992280;28;20728;-74
2023/03/04 11:47:16;;;;;;;12.88;2.88;;;5.80;74.10;;;;;;5006245;28;20113;-74
2023/03/04 11:50:07;;;;;;;19.20;3.08;;;5.70;74.10;;;;;;5013841;28;20489;-74
2023/03/04 11:52:44;;;;;;;22.50;3.42;;;5.80;74.80;;;;;;5027796;28;20026;-73
2023/03/04 11:55:51;;;;;;;14.80;2.65;;;5.70;75.70;;;;;;5004934;28;20106;-74
2023/03/04 11:58:36;;;;;;;21.77;2.75;;;5.80;75.30;;;;;;5012815;28;20034;-73
2023/03/04 12:01:09;;;;;;;21.75;3.30;;;5.90;75.20;;;;;;5013877;28;20132;-74
2023/03/04 12:03:59;;;;;;;13.50;2.45;;;5.70;74.80;;;;;;5015557;28;20022;-73
2023/03/04 12:06:45;;;;;;;10.82;2.35;;;5.70;75.60;;;;;;5012752;28;20109;-74
2023/03/04 12:09:41;;;;;;;20.42;2.95;;;5.60;75.30;;;;;;5010269;28;20128;-74
2023/03/04 12:12:28;;;;;;;14.90;2.28;;;5.80;75.40;;;;;;5019640;28;20477;-74
2023/03/04 12:15:01;;;;;;;16.90;3.38;;;6.00;72.60;;;;;;5021004;28;20030;-73
2023/03/04 12:17:47;;;;;;;11.82;2.53;;;6.00;71.00;;;;;;5021048;28;20032;-73
2023/03/04 12:20:36;;;;;;;11.65;2.10;;;6.10;69.90;;;;;;5016681;28;20025;-74
2023/03/04 12:23:04;;;;;;;23.42;3.25;;;6.10;68.90;;;;;;5016694;28;20065;-74
2023/03/04 12:25:40;;;;;;;13.80;2.63;;;6.10;69.10;;;;;;5016811;28;20150;-74
2023/03/04 12:28:38;;;;;;;11.35;2.78;;;6.10;69.60;;;;;;4996062;28;20144;-74
2023/03/04 12:31:18;;;;;;;16.08;2.25;;;6.30;69.50;;;;;;5028602;28;20104;-74
2023/03/04 12:34:26;;;;;;;17.43;2.33;;;6.10;69.70;;;;;;5037061;28;20537;-74
2023/03/04 12:37:30;;;;;;;10.88;2.47;;;6.10;70.60;;;;;;5027846;28;20033;-74
2023/03/04 12:40:16;;;;;;;17.42;2.13;;;6.10;72.00;;;;;;5008427;28;20149;-74
2023/03/04 12:43:24;;;;;;;21.58;3.10;;;6.10;72.90;;;;;;5030248;28;20432;-75
2023/03/04 12:46:09;;;;;;;18.13;3.00;;;5.90;73.30;;;;;;5030339;28;20366;-74
2023/03/04 12:48:50;;;;;;;19.00;3.00;;;5.80;74.00;;;;;;5020726;28;20389;-74
2023/03/04 12:51:25;;;;;;;19.38;2.72;;;5.80;73.80;;;;;;5043813;28;20032;-74
2023/03/04 12:54:15;;;;;;;12.73;2.50;;;5.70;74.90;;;;;;5028148;28;20060;-74
2023/03/04 12:56:47;;;;;;;14.68;3.25;;;5.60;75.10;;;;;;5013412;28;20040;-74
2023/03/04 12:59:16;;;;;;;16.70;3.03;;;5.50;75.40;;;;;;5027244;28;20029;-74
2023/03/04 13:02:15;;;;;;;18.75;3.28;;;5.40;74.40;;;;;;5043859;28;20120;-74
2023/03/04 13:04:51;;;;;;;17.17;2.92;;;5.60;74.90;;;;;;4990838;28;20061;-74